createdAt,value
2023-04-12T00:03:44.632Z,0.9
2023-04-12T00:10:04.546Z,0.9
2023-04-12T00:16:27.554Z,1.1
2023-04-12T00:22:47.534Z,1.1
2023-04-12T00:29:10.586Z,1.2
2023-04-12T00:35:30.553Z,1.2
2023-04-12T00:41:53.539Z,0.9
2023-04-12T00:48:13.538Z,0.9
2023-04-12T00:54:36.608Z,0.2
2023-04-12T01:00:56.503Z,0.2
2023-04-12T01:07:19.616Z,0.8
2023-04-12T01:13:39.541Z,0.8
2023-04-12T01:20:03.386Z,0.6
2023-04-12T01:26:22.627Z,0.6
2023-04-12T01:32:45.617Z,1.1
2023-04-12T01:39:05.535Z,1.1
2023-04-12T01:45:28.595Z,0.3
2023-04-12T01:51:48.679Z,0.3
2023-04-12T01:58:11.494Z,1.8
2023-04-12T02:04:31.557Z,1.8
2023-04-12T02:10:54.551Z,1.1
2023-04-12T02:17:14.548Z,1.1
2023-04-12T02:23:37.533Z,0.5
2023-04-12T02:29:57.618Z,0.5
2023-04-12T02:36:20.483Z,1.1
2023-04-12T02:42:40.615Z,1.1
2023-04-12T02:49:03.572Z,0.3
2023-04-12T02:55:23.566Z,0.3
2023-04-12T03:01:46.731Z,1.3
2023-04-12T03:08:06.563Z,1.3
2023-04-12T03:14:29.600Z,0.7
2023-04-12T03:20:49.600Z,0.7
2023-04-12T03:37:00.353Z,0.5
2023-04-12T03:43:20.491Z,0.5
2023-04-12T03:49:43.526Z,1
2023-04-12T03:56:03.635Z,1
2023-04-12T04:02:26.661Z,1
2023-04-12T04:08:46.577Z,1
2023-04-12T04:15:09.543Z,1.4
2023-04-12T04:21:29.596Z,1.4
2023-04-12T04:27:52.551Z,1
2023-04-12T04:34:12.868Z,1
2023-04-12T04:40:35.617Z,1.8
2023-04-12T04:46:55.588Z,1.8
2023-04-12T04:53:18.645Z,1.7
2023-04-12T04:59:38.573Z,1.7
2023-04-12T05:06:01.513Z,1.3
2023-04-12T05:12:21.662Z,1.3
2023-04-12T05:18:44.548Z,1.2
2023-04-12T05:25:04.518Z,1.2
2023-04-12T05:31:27.588Z,1.2
2023-04-12T05:37:47.584Z,1.2
2023-04-12T05:44:10.596Z,1.6
2023-04-12T05:50:30.503Z,1.6
2023-04-12T05:56:53.493Z,0.7
2023-04-12T06:03:13.825Z,0.7
2023-04-12T06:09:36.594Z,3.3
2023-04-12T06:15:56.619Z,3.3
2023-04-12T06:22:19.589Z,1.2
2023-04-12T06:28:39.722Z,1.2
2023-04-12T06:35:02.550Z,1.2
2023-04-12T06:41:22.537Z,1.2
2023-04-12T06:47:45.726Z,2.8
2023-04-12T06:54:05.528Z,2.8
2023-04-12T07:00:28.600Z,0.9
2023-04-12T07:06:48.674Z,0.9
2023-04-12T07:13:11.505Z,1.6
2023-04-12T07:19:32.526Z,1.6
2023-04-12T07:25:55.513Z,0.8
2023-04-12T07:32:15.578Z,0.8
2023-04-12T07:38:38.537Z,1.2
2023-04-12T07:44:58.851Z,1.2
2023-04-12T07:51:21.659Z,0.8
2023-04-12T07:57:41.613Z,0.8
2023-04-12T08:04:04.842Z,0.2
2023-04-12T08:10:24.538Z,0.2
2023-04-12T08:16:47.565Z,0.2
2023-04-12T08:23:07.719Z,0.2
2023-04-12T08:29:30.523Z,0.9
2023-04-12T08:35:50.631Z,0.9
2023-04-12T08:42:13.543Z,0.6
2023-04-12T08:58:03.450Z,1.1
2023-04-12T09:04:23.670Z,1.1
2023-04-12T09:10:46.525Z,1.1
2023-04-12T09:17:06.633Z,1.1
2023-04-12T09:23:29.572Z,0.3
2023-04-12T09:29:49.569Z,0.3
2023-04-12T09:36:12.572Z,0.8
2023-04-12T09:42:34.299Z,0.8
2023-04-12T09:48:55.558Z,0.4
2023-04-12T09:55:15.670Z,0.4
2023-04-12T10:01:38.675Z,0.2
2023-04-12T10:07:58.701Z,0.2
2023-04-12T10:14:21.624Z,0.9
2023-04-12T10:20:41.528Z,0.9
2023-04-12T10:27:04.523Z,0.5
2023-04-12T10:33:24.636Z,0.5
2023-04-12T10:39:47.549Z,0.2
2023-04-12T10:46:07.577Z,0.2
2023-04-12T10:52:30.794Z,0.3
2023-04-12T10:58:50.798Z,0.3
2023-04-12T11:05:13.649Z,0.3
2023-04-12T11:11:33.534Z,0.3
2023-04-12T11:17:56.562Z,0.1
2023-04-12T11:24:16.586Z,0.1
2023-04-12T11:30:39.718Z,1
2023-04-12T11:36:59.918Z,1
2023-04-12T11:43:22.796Z,1.2
2023-04-12T11:49:42.566Z,1.2
2023-04-12T11:56:05.532Z,1
2023-04-12T12:02:27.171Z,1
2023-04-12T12:08:48.641Z,1.9
2023-04-12T12:15:08.499Z,1.9
2023-04-12T12:21:31.572Z,1.2
2023-04-12T12:27:51.782Z,1.2
2023-04-12T12:34:14.780Z,1.1
2023-04-12T12:40:34.518Z,1.1
2023-04-12T12:47:06.541Z,3.2
2023-04-12T12:53:17.536Z,3.2
2023-04-12T12:59:40.501Z,1.6
2023-04-12T13:06:00.967Z,1.6
2023-04-12T13:12:23.650Z,0.6
2023-04-12T13:18:43.591Z,0.6
2023-04-12T13:25:06.753Z,0.6
2023-04-12T13:31:27.824Z,0.6
2023-04-12T13:37:50.551Z,0.7
2023-04-12T13:44:10.535Z,0.7
2023-04-12T13:50:33.616Z,0.8
2023-04-12T13:56:53.595Z,0.8
2023-04-12T14:03:16.735Z,0.1
2023-04-12T14:27:17.837Z,0.3
2023-04-12T14:33:36.518Z,0.3
2023-04-12T14:39:59.567Z,0.7
2023-04-12T14:46:19.607Z,0.7
2023-04-12T14:52:42.562Z,0.9
2023-04-12T14:59:02.540Z,0.9
2023-04-12T15:05:25.583Z,0.2
2023-04-12T15:11:45.545Z,0.2
2023-04-12T15:18:08.647Z,0.5
2023-04-12T15:24:28.547Z,0.5
2023-04-12T15:30:51.526Z,0.6
2023-04-12T15:37:11.586Z,0.6
2023-04-12T15:43:34.611Z,1.6
2023-04-12T15:49:54.525Z,1.6
2023-04-12T15:56:17.567Z,0.4
2023-04-12T16:02:37.835Z,0.4
2023-04-12T16:09:00.843Z,1.8
2023-04-12T16:15:20.590Z,1.8
2023-04-12T16:21:44.476Z,0.9
2023-04-12T16:28:03.514Z,0.9
2023-04-12T16:34:27.864Z,0.8
2023-04-12T16:40:47.596Z,0.8
2023-04-12T16:47:10.628Z,0.9
2023-04-12T16:53:30.578Z,0.9
2023-04-12T16:59:53.600Z,1.2
2023-04-12T17:06:13.566Z,1.2
2023-04-12T17:12:36.631Z,1.1
2023-04-12T17:18:56.927Z,1.1
2023-04-12T17:25:21.287Z,0.7
2023-04-12T17:31:39.679Z,0.7
2023-04-12T17:38:02.537Z,0.4
2023-04-12T17:44:22.533Z,0.4
2023-04-12T17:50:45.835Z,0.5
2023-04-12T17:57:05.543Z,0.5
2023-04-12T18:03:28.636Z,0.3
2023-04-12T18:09:48.546Z,0.3
2023-04-12T18:16:11.640Z,0.7
2023-04-12T18:22:31.487Z,0.7
2023-04-12T18:28:54.648Z,0.8
2023-04-12T18:35:14.909Z,0.8
2023-04-12T18:41:37.571Z,3.3
2023-04-12T18:47:57.608Z,3.3
2023-04-12T18:54:20.583Z,1.7
2023-04-12T19:00:40.659Z,1.7
2023-04-12T19:07:03.491Z,1
2023-04-12T19:30:27.440Z,1.2
2023-04-12T19:36:47.477Z,1.2
2023-04-12T19:43:10.487Z,2.2
2023-04-12T19:49:30.823Z,2.2
2023-04-12T19:55:53.895Z,1.6
2023-04-12T20:02:13.782Z,1.6
2023-04-12T20:08:36.666Z,1.3
2023-04-12T20:14:56.643Z,1.3
2023-04-12T20:21:19.630Z,0.8
2023-04-12T20:27:39.593Z,0.8
2023-04-12T20:34:02.568Z,1.7
2023-04-12T20:40:22.523Z,1.7
2023-04-12T20:46:45.647Z,1.7
2023-04-12T20:53:05.923Z,1.7
2023-04-12T20:59:28.848Z,1.3
2023-04-12T21:05:48.649Z,1.3
2023-04-12T21:12:11.752Z,1
2023-04-12T21:18:31.553Z,1
2023-04-12T21:24:54.631Z,0.8
2023-04-12T21:31:14.615Z,0.8
2023-04-12T21:37:37.599Z,0.9
2023-04-12T21:43:57.538Z,0.9
2023-04-12T21:50:20.660Z,0.5
2023-04-12T21:56:40.550Z,0.5
2023-04-12T22:22:15.516Z,0.6
2023-04-12T22:28:35.524Z,0.6
2023-04-12T22:35:07.961Z,0.6
2023-04-12T22:41:18.617Z,0.6
2023-04-12T22:47:41.574Z,0.1
2023-04-12T22:54:01.576Z,0.1
2023-04-12T23:00:24.635Z,0.8
2023-04-12T23:06:44.776Z,0.8
2023-04-12T23:13:07.567Z,1.2
2023-04-12T23:19:27.708Z,1.2
2023-04-12T23:25:50.574Z,0.6
2023-04-12T23:32:10.719Z,0.6
2023-04-12T23:38:33.669Z,0.2
2023-04-12T23:44:53.663Z,0.2
2023-04-12T23:51:16.538Z,0.8
2023-04-12T23:57:36.612Z,0.8
